PWSweather.com
Personal Weather Stations
Station Observations
KTXPLANO60
Highlands Of Russell Park, Plano, TX 75025

Highlands Of Russell ParkPlano, TX 75025

Lat: 33.10431671, Lon: -96.75176239

Elevation: 761

Station Type: Davis Wireless VP2 Plus

http://www.planoweather.com

Latest ConditionsUpdated 7:10:00 AM CDT Sunday, Sep 25, 2016
Currently Today's Max Today's Min Today's Average
Temperature 71.0°F21.7°C 75.1°F23.9°C 71.0°F21.7°C 74.3°F23.5°C
Dew Point 64.8°F18.2°C 70.8°F21.6°C 64.8°F18.2°C 69.4°F20.8°C
Winds 3.5 mph NE5.6 kmh NE 4.6 mph S7.4 kmh S - 2.0 mph 3.2 kmh
Wind Gusts 5.8 mph9.3 kmh 8.1 mph13.0 kmh - -
Humidity 81% 87% 81% 85%
Pressure 29.95 in1014.2 mb 29.95 in1014.2 mb 29.89 in1012.2 mb -
Precipitation - 0.44 in11.2 mm - -
Hour Temp Dew Point Humidity Winds Wind Gusts Pressure Precip Precip Rate Daily Precip Total
07:10 AM 71.0°F21.7°C 64.8°F18.2°C 81% 3.5 mph NE5.6 kmh NE 5.8 mph9.3 kmh 29.95 in1014.2 mb - 0.00 in0.0 mm 0.44 in11.2 mm
07:00 AM 71.0°F21.7°C 65.2°F18.4°C 82% 2.3 mph N3.7 kmh N 3.5 mph5.6 kmh 29.94 in1013.9 mb - 0.00 in0.0 mm 0.44 in11.2 mm
06:50 AM 71.1°F21.7°C 65.6°F18.7°C 83% 3.5 mph N5.6 kmh N 4.6 mph7.4 kmh 29.94 in1013.9 mb - 0.00 in0.0 mm 0.44 in11.2 mm
06:40 AM 71.4°F21.9°C 66.3°F19.1°C 84% 3.5 mph N5.6 kmh N 6.9 mph11.1 kmh 29.94 in1013.9 mb - 0.01 in0.3 mm 0.44 in11.2 mm
06:30 AM 71.9°F22.2°C 67.1°F19.5°C 85% 3.5 mph NNE5.6 kmh NNE 4.6 mph7.4 kmh 29.93 in1013.5 mb - 0.05 in1.3 mm 0.43 in10.9 mm
06:20 AM 73.2°F22.9°C 68.4°F20.2°C 85% Calm Calm 3.5 mph5.6 kmh 29.93 in1013.5 mb - 0.00 in0.0 mm 0.38 in9.7 mm
06:10 AM 74.3°F23.5°C 68.4°F20.2°C 82% Calm Calm 1.2 mph1.9 kmh 29.93 in1013.5 mb - 0.00 in0.0 mm 0.38 in9.7 mm
06:00 AM 74.4°F23.6°C 68.9°F20.5°C 83% 2.3 mph SSW3.7 kmh SSW 4.6 mph7.4 kmh 29.92 in1013.2 mb - 0.01 in0.3 mm 0.38 in9.7 mm
05:50 AM 74.7°F23.7°C 69.5°F20.8°C 84% 1.2 mph S1.9 kmh S 4.6 mph7.4 kmh 29.92 in1013.2 mb - 0.14 in3.6 mm 0.38 in9.7 mm
05:40 AM 75.0°F23.9°C 70.2°F21.2°C 85% 2.3 mph S3.7 kmh S 4.6 mph7.4 kmh 29.91 in1012.9 mb - 0.02 in0.5 mm 0.24 in6.1 mm
05:30 AM 75.1°F23.9°C 70.3°F21.3°C 85% 1.2 mph S1.9 kmh S 3.5 mph5.6 kmh 29.91 in1012.9 mb - 0.23 in5.8 mm 0.23 in5.8 mm
05:20 AM 74.9°F23.8°C 70.5°F21.4°C 86% 1.2 mph S1.9 kmh S 3.5 mph5.6 kmh 29.91 in1012.9 mb - 0.00 in0.0 mm 0.00 in0.0 mm
05:10 AM 74.9°F23.8°C 70.4°F21.3°C 86% 1.2 mph S1.9 kmh S 3.5 mph5.6 kmh 29.91 in1012.9 mb - 0.00 in0.0 mm 0.00 in0.0 mm
05:00 AM 74.9°F23.8°C 70.4°F21.3°C 86% Calm Calm 1.2 mph1.9 kmh 29.91 in1012.9 mb - 0.00 in0.0 mm 0.00 in0.0 mm
04:50 AM 74.9°F23.8°C 70.8°F21.6°C 87% 1.2 mph S1.9 kmh S 3.5 mph5.6 kmh 29.91 in1012.9 mb - 0.00 in0.0 mm 0.00 in0.0 mm
04:40 AM 74.9°F23.8°C 70.8°F21.6°C 87% 2.3 mph S3.7 kmh S 3.5 mph5.6 kmh 29.91 in1012.9 mb - 0.00 in0.0 mm 0.00 in0.0 mm
04:30 AM 74.9°F23.8°C 70.8°F21.6°C 87% Calm Calm -- 29.91 in1012.9 mb - 0.00 in0.0 mm 0.00 in0.0 mm
04:20 AM 74.8°F23.8°C 70.7°F21.5°C 87% Calm Calm 3.5 mph5.6 kmh 29.92 in1013.2 mb - 0.00 in0.0 mm 0.00 in0.0 mm
04:10 AM 74.8°F23.8°C 70.7°F21.5°C 87% 1.2 mph S1.9 kmh S 3.5 mph5.6 kmh 29.91 in1012.9 mb - 0.00 in0.0 mm 0.00 in0.0 mm
04:00 AM 74.8°F23.8°C 70.7°F21.5°C 87% 2.3 mph S3.7 kmh S 3.5 mph5.6 kmh 29.91 in1012.9 mb - 0.00 in0.0 mm 0.00 in0.0 mm
03:50 AM 74.8°F23.8°C 70.7°F21.5°C 87% 2.3 mph S3.7 kmh S 4.6 mph7.4 kmh 29.91 in1012.9 mb - 0.00 in0.0 mm 0.00 in0.0 mm
03:40 AM 74.8°F23.8°C 70.7°F21.5°C 87% 1.2 mph S1.9 kmh S 3.5 mph5.6 kmh 29.91 in1012.9 mb - 0.00 in0.0 mm 0.00 in0.0 mm
03:30 AM 74.7°F23.7°C 70.6°F21.4°C 87% 1.2 mph S1.9 kmh S 2.3 mph3.7 kmh 29.91 in1012.9 mb - 0.00 in0.0 mm 0.00 in0.0 mm
03:20 AM 74.7°F23.7°C 70.2°F21.2°C 86% 1.2 mph S1.9 kmh S 3.5 mph5.6 kmh 29.91 in1012.9 mb - 0.00 in0.0 mm 0.00 in0.0 mm
03:10 AM 74.6°F23.7°C 70.1°F21.2°C 86% 3.5 mph S5.6 kmh S 6.9 mph11.1 kmh 29.91 in1012.9 mb - 0.00 in0.0 mm 0.00 in0.0 mm
03:00 AM 74.6°F23.7°C 70.1°F21.2°C 86% 2.3 mph S3.7 kmh S 4.6 mph7.4 kmh 29.91 in1012.9 mb - 0.00 in0.0 mm 0.00 in0.0 mm
02:50 AM 74.7°F23.7°C 70.2°F21.2°C 86% 3.5 mph S5.6 kmh S 5.8 mph9.3 kmh 29.90 in1012.5 mb - 0.00 in0.0 mm 0.00 in0.0 mm
02:40 AM 74.7°F23.7°C 70.2°F21.2°C 86% 1.2 mph S1.9 kmh S 6.9 mph11.1 kmh 29.90 in1012.5 mb - 0.00 in0.0 mm 0.00 in0.0 mm
02:30 AM 74.7°F23.7°C 70.2°F21.2°C 86% 1.2 mph S1.9 kmh S 4.6 mph7.4 kmh 29.89 in1012.2 mb - 0.00 in0.0 mm 0.00 in0.0 mm
02:20 AM 74.8°F23.8°C 70.3°F21.3°C 86% 3.5 mph S5.6 kmh S 5.8 mph9.3 kmh 29.89 in1012.2 mb - 0.00 in0.0 mm 0.00 in0.0 mm
02:10 AM 74.7°F23.7°C 70.2°F21.2°C 86% 1.2 mph S1.9 kmh S 2.3 mph3.7 kmh 29.89 in1012.2 mb - 0.00 in0.0 mm 0.00 in0.0 mm
02:00 AM 74.7°F23.7°C 69.9°F21.1°C 85% 2.3 mph S3.7 kmh S 4.6 mph7.4 kmh 29.90 in1012.5 mb - 0.00 in0.0 mm 0.00 in0.0 mm
01:50 AM 74.6°F23.7°C 69.8°F21.0°C 85% 3.5 mph S5.6 kmh S 4.6 mph7.4 kmh 29.89 in1012.2 mb - 0.00 in0.0 mm 0.00 in0.0 mm
01:40 AM 74.6°F23.7°C 69.8°F21.0°C 85% 2.3 mph S3.7 kmh S 4.6 mph7.4 kmh 29.89 in1012.2 mb - 0.00 in0.0 mm 0.00 in0.0 mm
01:30 AM 74.6°F23.7°C 69.4°F20.8°C 84% 3.5 mph S5.6 kmh S 5.8 mph9.3 kmh 29.89 in1012.2 mb - 0.00 in0.0 mm 0.00 in0.0 mm
01:20 AM 74.6°F23.7°C 69.4°F20.8°C 84% 3.5 mph S5.6 kmh S 6.9 mph11.1 kmh 29.90 in1012.5 mb - 0.00 in0.0 mm 0.00 in0.0 mm
01:10 AM 74.6°F23.7°C 69.1°F20.6°C 83% 4.6 mph S7.4 kmh S 8.1 mph13.0 kmh 29.89 in1012.2 mb - 0.00 in0.0 mm 0.00 in0.0 mm
01:00 AM 74.7°F23.7°C 68.8°F20.4°C 82% 1.2 mph S1.9 kmh S 3.5 mph5.6 kmh 29.90 in1012.5 mb - 0.00 in0.0 mm 0.00 in0.0 mm
12:50 AM 74.8°F23.8°C 68.9°F20.5°C 82% 2.3 mph S3.7 kmh S 4.6 mph7.4 kmh 29.90 in1012.5 mb - 0.00 in0.0 mm 0.00 in0.0 mm
12:40 AM 74.9°F23.8°C 69.0°F20.6°C 82% Calm Calm 2.3 mph3.7 kmh 29.90 in1012.5 mb - 0.00 in0.0 mm 0.00 in0.0 mm
12:30 AM 74.9°F23.8°C 68.7°F20.4°C 81% 1.2 mph S1.9 kmh S 3.5 mph5.6 kmh 29.91 in1012.9 mb - 0.00 in0.0 mm 0.00 in0.0 mm
12:20 AM 75.0°F23.9°C 68.7°F20.4°C 81% 1.2 mph S1.9 kmh S 3.5 mph5.6 kmh 29.91 in1012.9 mb - 0.00 in0.0 mm 0.00 in0.0 mm
12:10 AM 75.1°F23.9°C 68.9°F20.5°C 81% 2.3 mph S3.7 kmh S 2.3 mph3.7 kmh 29.90 in1012.5 mb - 0.00 in0.0 mm 0.00 in0.0 mm
12:00 AM 75.1°F23.9°C 68.9°F20.5°C 81% 3.5 mph S5.6 kmh S 4.6 mph7.4 kmh 29.90 in1012.5 mb - 0.00 in0.0 mm 0.00 in0.0 mm